Check out our new BloomSky Weather System.

Active alerts


No alerts


Thunder radar  blitzortung!


Rain radar more information rain snow radar


Visit our other weather sites:

Template documentation
and downloads

And another site



Weather Underground History page Text

Daily Summary for April 12, 2017 Units:  English    Metric   Both
« Previous Day
Next Day »
Daily Weekly Monthly Yearly Custom
  High: Low: Average:
Temperature: TemperatureF °F 59.2 °F 68 °F
Dew Point: DewpointF °F 58.8 °F 65.4 °F
Humidity: Humidity % 73 % 91 %
Wind Speed: WindSpeedMPH mph 0.0 mph 1.2 mph
Wind Gust: WindSpeedGustMPH mph - -
Wind:- - SSE
Pressure: PressureIn in 30.11 in -
Precipitation: 0.01 in    
Historical Graphs
 
 
Tabular Data for April 12, 2017
Time Temperature Dew Point Pressure Wind Wind Speed Wind Gust Humidity Rainfall Rate (Hourly)
TemperatureF °F DewpointF °F PressureIn in Calm     Humidity % HourlyPrecipIn in
00:00 61.0 °F 60.4 °F 30.15 in Calm   1.0 mph 98 % 0.00 in
00:05 60.8 °F 60.3 °F 30.15 in Calm   1.0 mph 98 % 0.00 in
00:10 60.6 °F 60.1 °F 30.15 in Calm   1.0 mph 98 % 0.00 in
00:15 60.6 °F 60.1 °F 30.15 in Calm   1.0 mph 98 % 0.00 in
00:20 60.6 °F 60.3 °F 30.15 in Calm   1.0 mph 99 % 0.00 in
00:25 60.6 °F 60.1 °F 30.15 in Calm   1.0 mph 98 % 0.00 in
00:30 60.4 °F 59.9 °F 30.15 in Calm     98 % 0.00 in
00:35 60.4 °F 59.9 °F 30.15 in Calm     98 % 0.00 in
00:40 60.3 °F 59.7 °F 30.15 in Calm     98 % 0.00 in
00:45 60.3 °F 59.7 °F 30.15 in Calm     98 % 0.00 in
00:50 60.3 °F 59.7 °F 30.15 in Calm     98 % 0.00 in
00:55 60.1 °F 59.5 °F 30.14 in Calm     98 % 0.00 in
01:00 60.1 °F 59.7 °F 30.14 in Calm     99 % 0.00 in
01:05 60.1 °F 59.5 °F 30.14 in Calm     98 % 0.00 in
01:10 59.9 °F 59.4 °F 30.14 in Calm     98 % 0.00 in
01:15 59.9 °F 59.5 °F 30.14 in Calm     99 % 0.00 in
01:20 60.1 °F 59.7 °F 30.14 in Calm   1.0 mph 99 % 0.00 in
01:25 60.1 °F 59.7 °F 30.13 in Calm   1.0 mph 99 % 0.00 in
01:30 60.1 °F 59.7 °F 30.13 in Calm   1.0 mph 99 % 0.00 in
01:35 60.1 °F 59.7 °F 30.13 in Calm   1.0 mph 99 % 0.00 in
01:40 59.9 °F 59.5 °F 30.13 in Calm   1.0 mph 99 % 0.00 in
01:45 59.9 °F 59.5 °F 30.13 in Calm   1.0 mph 99 % 0.00 in
01:50 59.5 °F 59.0 °F 30.13 in Calm     98 % 0.00 in
01:55 59.5 °F 59.0 °F 30.13 in Calm     98 % 0.00 in
02:00 59.5 °F 59.2 °F 30.12 in Calm   1.0 mph 99 % 0.00 in
02:05 59.5 °F 59.2 °F 30.12 in Calm   1.0 mph 99 % 0.00 in
02:10 59.4 °F 59.0 °F 30.12 in Calm   1.0 mph 99 % 0.00 in
02:15 59.4 °F 59.0 °F 30.12 in Calm     99 % 0.00 in
02:20 59.4 °F 59.0 °F 30.12 in Calm     99 % 0.00 in
02:25 59.2 °F 58.8 °F 30.13 in Calm     99 % 0.00 in
02:30 59.2 °F 58.8 °F 30.12 in Calm     99 % 0.00 in
02:35 59.2 °F 58.8 °F 30.12 in Calm     99 % 0.00 in
02:40 59.2 °F 58.8 °F 30.12 in Calm   1.0 mph 99 % 0.00 in
02:45 59.2 °F 58.8 °F 30.12 in Calm   1.0 mph 99 % 0.00 in
02:50 59.2 °F 58.8 °F 30.12 in Calm   1.0 mph 99 % 0.00 in
02:55 59.2 °F 58.8 °F 30.12 in Calm   1.0 mph 99 % 0.00 in
03:00 59.2 °F 58.8 °F 30.12 in Calm   1.0 mph 99 % 0.00 in
03:06 59.4 °F 59.0 °F 30.12 in Calm   1.0 mph 99 % 0.00 in
03:11 59.2 °F 58.8 °F 30.12 in Calm     99 % 0.00 in
03:16 59.2 °F 58.8 °F 30.12 in Calm     99 % 0.00 in
03:21 59.2 °F 58.8 °F 30.12 in Calm   1.0 mph 99 % 0.00 in
03:26 59.4 °F 59.0 °F 30.12 in Calm   1.0 mph 99 % 0.00 in
03:31 59.4 °F 59.0 °F 30.12 in Calm   1.0 mph 99 % 0.00 in
03:36 59.7 °F 59.4 °F 30.12 in Calm   1.0 mph 99 % 0.00 in
03:41 59.7 °F 59.4 °F 30.12 in Calm   1.0 mph 99 % 0.00 in
03:46 60.1 °F 59.7 °F 30.12 in Calm   1.0 mph 99 % 0.00 in
03:51 60.1 °F 59.7 °F 30.12 in Calm   1.0 mph 99 % 0.00 in
03:56 60.3 °F 59.9 °F 30.12 in NNW 1.0 mph 1.0 mph 99 % 0.00 in
04:01 60.3 °F 59.9 °F 30.12 in NNW 1.0 mph 3.0 mph 99 % 0.00 in
04:06 60.4 °F 60.1 °F 30.12 in Calm   3.0 mph 99 % 0.00 in
04:11 60.4 °F 60.1 °F 30.12 in NNW 1.0 mph 4.0 mph 99 % 0.00 in
04:16 60.4 °F 60.1 °F 30.12 in NW 2.0 mph 4.0 mph 99 % 0.00 in
04:21 60.4 °F 60.1 °F 30.12 in Calm   4.0 mph 99 % 0.00 in
04:26 60.4 °F 60.1 °F 30.12 in Calm   4.0 mph 99 % 0.00 in
04:31 60.4 °F 60.1 °F 30.12 in NW 1.0 mph 4.0 mph 99 % 0.00 in
04:36 60.4 °F 60.1 °F 30.11 in Calm   4.0 mph 99 % 0.00 in
04:41 60.6 °F 60.3 °F 30.12 in NE 1.0 mph 3.0 mph 99 % 0.00 in
04:46 60.6 °F 60.3 °F 30.12 in Calm   3.0 mph 99 % 0.00 in
04:51 60.6 °F 60.3 °F 30.12 in NNW 1.0 mph 3.0 mph 99 % 0.00 in
04:56 60.6 °F 60.3 °F 30.12 in North 1.0 mph 3.0 mph 99 % 0.00 in
05:01 60.6 °F 60.3 °F 30.12 in NW 1.0 mph 3.0 mph 99 % 0.00 in
05:06 60.8 °F 60.4 °F 30.12 in Calm   3.0 mph 99 % 0.00 in
05:11 60.8 °F 60.4 °F 30.12 in Calm   3.0 mph 99 % 0.00 in
05:16 61.0 °F 60.6 °F 30.12 in Calm   3.0 mph 99 % 0.00 in
05:21 61.0 °F 60.6 °F 30.12 in Calm   2.0 mph 99 % 0.00 in
05:26 61.0 °F 60.6 °F 30.12 in Calm   2.0 mph 99 % 0.00 in
05:31 61.0 °F 60.6 °F 30.12 in ENE 2.0 mph 2.0 mph 99 % 0.00 in
05:36 61.2 °F 60.8 °F 30.12 in NNW 1.0 mph 3.0 mph 99 % 0.00 in
05:41 61.2 °F 60.8 °F 30.12 in NNW 2.0 mph 3.0 mph 99 % 0.00 in
05:46 61.2 °F 60.8 °F 30.12 in NNE 1.0 mph 3.0 mph 99 % 0.00 in
05:51 61.2 °F 60.8 °F 30.12 in NW 1.0 mph 3.0 mph 99 % 0.00 in
05:56 61.2 °F 60.8 °F 30.12 in Calm   3.0 mph 99 % 0.00 in
06:01 61.2 °F 60.8 °F 30.12 in North 2.0 mph 3.0 mph 99 % 0.00 in
06:06 61.2 °F 60.8 °F 30.12 in Calm   3.0 mph 99 % 0.00 in
06:11 61.3 °F 61.0 °F 30.12 in North 1.0 mph 3.0 mph 99 % 0.00 in
06:16 61.3 °F 61.0 °F 30.13 in North 2.0 mph 3.0 mph 99 % 0.00 in
06:21 61.3 °F 61.0 °F 30.13 in North 1.0 mph 3.0 mph 99 % 0.00 in
06:26 61.5 °F 61.2 °F 30.13 in NNW 1.0 mph 3.0 mph 99 % 0.00 in
06:31 61.5 °F 61.2 °F 30.13 in Calm   3.0 mph 99 % 0.00 in
06:36 61.5 °F 61.2 °F 30.13 in Calm   2.0 mph 99 % 0.00 in
06:41 61.5 °F 61.2 °F 30.14 in Calm   2.0 mph 99 % 0.00 in
06:46 61.7 °F 61.3 °F 30.13 in NNW 1.0 mph 1.0 mph 99 % 0.00 in
06:51 61.7 °F 61.3 °F 30.14 in Calm   3.0 mph 99 % 0.00 in
06:56 61.9 °F 61.5 °F 30.14 in Calm   3.0 mph 99 % 0.00 in
07:01 61.9 °F 61.5 °F 30.14 in NNW 1.0 mph 3.0 mph 99 % 0.00 in
07:06 61.9 °F 61.5 °F 30.14 in WNW 1.0 mph 3.0 mph 99 % 0.00 in
07:11 61.9 °F 61.5 °F 30.14 in Calm   3.0 mph 99 % 0.00 in
07:16 61.9 °F 61.5 °F 30.14 in NW 1.0 mph 2.0 mph 99 % 0.00 in
07:21 61.9 °F 61.5 °F 30.15 in Calm   2.0 mph 99 % 0.00 in
07:26 62.1 °F 61.7 °F 30.15 in Calm   2.0 mph 99 % 0.00 in
07:31 62.1 °F 61.7 °F 30.15 in Calm   3.0 mph 99 % 0.00 in
07:36 62.2 °F 61.9 °F 30.15 in Calm   3.0 mph 99 % 0.00 in
07:41 62.2 °F 61.9 °F 30.16 in NNE 1.0 mph 4.0 mph 99 % 0.00 in
07:46 62.2 °F 61.9 °F 30.16 in NNW 1.0 mph 4.0 mph 99 % 0.00 in
07:51 62.4 °F 62.1 °F 30.16 in Calm   4.0 mph 99 % 0.00 in
07:56 62.4 °F 62.1 °F 30.16 in Calm   2.0 mph 99 % 0.00 in
08:01 62.6 °F 62.2 °F 30.17 in North 1.0 mph 2.0 mph 99 % 0.00 in
08:06 62.8 °F 62.4 °F 30.17 in Calm   3.0 mph 99 % 0.00 in
08:11 63.0 °F 62.6 °F 30.17 in Calm   3.0 mph 99 % 0.00 in
08:16 63.0 °F 62.6 °F 30.17 in Calm   3.0 mph 99 % 0.00 in
08:21 63.1 °F 62.8 °F 30.17 in Calm   2.0 mph 99 % 0.00 in
08:26 63.1 °F 62.6 °F 30.17 in Calm   4.0 mph 98 % 0.00 in
08:31 63.1 °F 62.6 °F 30.17 in NNW 1.0 mph 4.0 mph 98 % 0.00 in
08:36 63.3 °F 62.8 °F 30.17 in ESE 1.0 mph 4.0 mph 98 % 0.00 in
08:41 63.3 °F 62.8 °F 30.17 in NW 1.0 mph 4.0 mph 98 % 0.00 in
08:46 63.5 °F 63.0 °F 30.17 in NNE 3.0 mph 4.0 mph 98 % 0.00 in
08:52 63.7 °F 63.1 °F 30.17 in NE 4.0 mph 4.0 mph 98 % 0.00 in
08:57 64.0 °F 63.5 °F 30.17 in Calm   5.0 mph 98 % 0.00 in
09:02 64.2 °F 63.7 °F 30.17 in NW 1.0 mph 5.0 mph 98 % 0.00 in
09:07 64.2 °F 63.3 °F 30.17 in North 1.0 mph 5.0 mph 97 % 0.00 in
09:12 64.6 °F 63.7 °F 30.17 in East 2.0 mph 5.0 mph 97 % 0.00 in
09:17 64.6 °F 63.7 °F 30.17 in Calm   5.0 mph 97 % 0.00 in
09:22 64.9 °F 64.0 °F 30.17 in NE 1.0 mph 5.0 mph 97 % 0.00 in
09:27 65.7 °F 64.8 °F 30.17 in North 1.0 mph 5.0 mph 97 % 0.00 in
09:30 65.8 °F 64.9 °F 30.17 in Calm   5.0 mph 97 % 0.00 in
09:35 66.0 °F 64.8 °F 30.17 in North 1.0 mph 6.0 mph 96 % 0.00 in
09:40 66.4 °F 65.1 °F 30.18 in Calm   6.0 mph 96 % 0.00 in
09:45 66.7 °F 65.5 °F 30.18 in Calm   6.0 mph 96 % 0.00 in
09:50 66.9 °F 65.5 °F 30.18 in NW 2.0 mph 5.0 mph 95 % 0.00 in
09:55 67.1 °F 65.3 °F 30.18 in ENE 1.0 mph 4.0 mph 94 % 0.00 in
10:00 67.3 °F 65.5 °F 30.18 in NNW 1.0 mph 4.0 mph 94 % 0.00 in
10:05 67.5 °F 65.7 °F 30.18 in NW 3.0 mph 6.0 mph 94 % 0.00 in
10:10 67.6 °F 65.8 °F 30.19 in Calm   6.0 mph 94 % 0.00 in
10:15 68.2 °F 66.4 °F 30.19 in NNE 1.0 mph 6.0 mph 94 % 0.00 in
10:20 68.9 °F 66.7 °F 30.19 in Calm   4.0 mph 93 % 0.00 in
10:25 69.1 °F 66.7 °F 30.19 in Calm   4.0 mph 92 % 0.00 in
10:30 69.3 °F 66.9 °F 30.19 in Calm   4.0 mph 92 % 0.00 in
10:35 69.8 °F 67.1 °F 30.19 in NNW 3.0 mph 5.0 mph 91 % 0.00 in
10:36 69.8 °F 67.1 °F 30.20 in ENE 1.0 mph 5.0 mph 91 % 0.00 in
10:41 70.2 °F 67.5 °F 30.20 in West 1.0 mph 5.0 mph 91 % 0.00 in
10:46 71.1 °F 68.0 °F 30.20 in ENE 4.0 mph 5.0 mph 90 % 0.00 in
10:51 71.6 °F 68.5 °F 30.19 in NW 3.0 mph 5.0 mph 90 % 0.00 in
10:56 72.0 °F 67.8 °F 30.20 in NNE 4.0 mph 5.0 mph 87 % 0.00 in
11:01 72.1 °F 68.0 °F 30.19 in East 2.0 mph 5.0 mph 87 % 0.00 in
11:06 72.0 °F 67.8 °F 30.19 in Calm   7.0 mph 87 % 0.00 in
11:11 72.5 °F 68.7 °F 30.19 in SE 3.0 mph 7.0 mph 88 % 0.00 in
11:12 79.0 °F 70.3 °F 30.12 in Calm   7.0 mph 75 % 0.00 in
11:13 79.0 °F 70.3 °F 30.12 in Calm   7.0 mph 75 % 0.00 in
11:14 79.0 °F 70.7 °F 30.11 in North 2.0 mph 7.0 mph 76 % 0.00 in
11:15 79.0 °F 70.3 °F 30.11 in ENE 2.0 mph 7.0 mph 75 % 0.00 in
11:16 73.0 °F 68.9 °F 30.19 in East 3.0 mph 7.0 mph 87 % 0.00 in
11:21 73.4 °F 68.9 °F 30.19 in East 3.0 mph 4.0 mph 86 % 0.00 in
11:26 73.2 °F 68.4 °F 30.19 in East 2.0 mph 6.0 mph 85 % 0.00 in
11:31 73.2 °F 68.7 °F 30.19 in Calm   6.0 mph 86 % 0.00 in
11:36 73.8 °F 69.3 °F 30.19 in ESE 2.0 mph 6.0 mph 86 % 0.00 in
11:41 73.8 °F 68.9 °F 30.19 in NNE 2.0 mph 6.0 mph 85 % 0.00 in
11:46 73.9 °F 69.1 °F 30.19 in Calm   6.0 mph 85 % 0.00 in
11:51 74.7 °F 69.8 °F 30.19 in ESE 5.0 mph 6.0 mph 85 % 0.00 in
11:56 74.8 °F 69.6 °F 30.19 in ENE 2.0 mph 6.0 mph 84 % 0.00 in
12:01 74.8 °F 69.6 °F 30.19 in NW 2.0 mph 6.0 mph 84 % 0.00 in
12:06 74.8 °F 69.6 °F 30.19 in Calm   6.0 mph 84 % 0.00 in
12:11 75.2 °F 70.0 °F 30.18 in NW 1.0 mph 6.0 mph 84 % 0.00 in
12:16 75.4 °F 69.8 °F 30.18 in NE 2.0 mph 6.0 mph 83 % 0.00 in
12:21 76.3 °F 71.4 °F 30.18 in East 1.0 mph 6.0 mph 85 % 0.00 in
12:26 76.5 °F 69.8 °F 30.18 in ENE 1.0 mph 6.0 mph 80 % 0.00 in
12:31 76.5 °F 70.2 °F 30.18 in ENE 1.0 mph 6.0 mph 81 % 0.00 in
12:36 76.3 °F 70.0 °F 30.17 in ENE 2.0 mph 6.0 mph 81 % 0.00 in
12:41 76.5 °F 70.9 °F 30.17 in Calm   6.0 mph 83 % 0.00 in
12:46 77.2 °F 70.5 °F 30.17 in SE 3.0 mph 7.0 mph 80 % 0.00 in
12:51 77.0 °F 70.3 °F 30.17 in ESE 4.0 mph 7.0 mph 80 % 0.00 in
12:56 77.0 °F 70.0 °F 30.17 in Calm   7.0 mph 79 % 0.00 in
13:01 77.4 °F 71.1 °F 30.17 in Calm   7.0 mph 81 % 0.00 in
13:06 77.9 °F 70.9 °F 30.17 in Calm   7.0 mph 79 % 0.00 in
13:11 77.7 °F 70.7 °F 30.16 in WNW 2.0 mph 7.0 mph 79 % 0.00 in
13:16 78.1 °F 70.7 °F 30.16 in ENE 2.0 mph 7.0 mph 78 % 0.00 in
13:21 78.1 °F 70.7 °F 30.16 in ENE 3.0 mph 7.0 mph 78 % 0.00 in
13:26 77.9 °F 69.8 °F 30.16 in SE 1.0 mph 7.0 mph 76 % 0.00 in
13:31 78.3 °F 70.9 °F 30.15 in East 1.0 mph 7.0 mph 78 % 0.00 in
13:36 78.8 °F 71.4 °F 30.15 in NE 3.0 mph 7.0 mph 78 % 0.00 in
13:41 79.0 °F 70.7 °F 30.15 in WNW 3.0 mph 7.0 mph 76 % 0.00 in
13:46 79.2 °F 71.2 °F 30.15 in East 2.0 mph 7.0 mph 77 % 0.00 in
13:51 79.3 °F 70.7 °F 30.15 in ESE 2.0 mph 7.0 mph 75 % 0.00 in
13:56 79.3 °F 70.7 °F 30.15 in East 6.0 mph 6.0 mph 75 % 0.00 in
14:01 79.2 °F 70.9 °F 30.14 in North 3.0 mph 7.0 mph 76 % 0.00 in
14:02 79.2 °F 70.9 °F 30.14 in NNW 1.0 mph 7.0 mph 76 % 0.00 in
14:07 79.5 °F 71.2 °F 30.14 in Calm   8.0 mph 76 % 0.00 in
14:12 79.9 °F 71.2 °F 30.14 in SE 2.0 mph 8.0 mph 75 % 0.00 in
14:17 80.1 °F 70.7 °F 30.14 in North 4.0 mph 8.0 mph 73 % 0.00 in
14:22 79.5 °F 70.5 °F 30.14 in NW 2.0 mph 8.0 mph 74 % 0.00 in
14:27 79.2 °F 70.5 °F 30.14 in NNW 4.0 mph 8.0 mph 75 % 0.00 in
14:32 79.2 °F 70.5 °F 30.13 in Calm   8.0 mph 75 % 0.00 in
16:16 79.2 °F 70.5 °F 30.11 in ENE 7.0 mph -999.0 mph 75 % 0 in
16:21 79.3 °F 70.3 °F 30.11 in ESE 4.0 mph 8.0 mph 74 % 0.00 in
16:26 79.0 °F 70.0 °F 30.11 in East 3.0 mph 7.0 mph 74 % 0.00 in
16:31 78.4 °F 70.2 °F 30.12 in South 4.0 mph 9.0 mph 76 % 0.00 in
16:36 77.2 °F 70.2 °F 30.12 in SE 2.0 mph 15.0 mph 79 % 0.00 in
16:41 76.3 °F 71.1 °F 30.12 in ESE 5.0 mph 15.0 mph 84 % 0.00 in
16:46 75.4 °F 70.9 °F 30.12 in SSE 4.0 mph 15.0 mph 86 % 0.01 in
16:51 74.8 °F 70.7 °F 30.12 in ESE 5.0 mph 10.0 mph 87 % 0.01 in
16:56 74.5 °F 70.7 °F 30.12 in East 4.0 mph 9.0 mph 88 % 0.01 in
17:01 74.1 °F 70.0 °F 30.12 in East 1.0 mph 9.0 mph 87 % 0.01 in
17:06 74.3 °F 70.5 °F 30.12 in ESE 2.0 mph 9.0 mph 88 % 0.01 in
17:11 74.5 °F 70.7 °F 30.12 in East 1.0 mph 8.0 mph 88 % 0.01 in
17:16 74.5 °F 70.3 °F 30.12 in ESE 1.0 mph 8.0 mph 87 % 0.01 in
17:21 74.5 °F 70.3 °F 30.12 in SE 1.0 mph 5.0 mph 87 % 0.01 in
17:26 74.5 °F 70.0 °F 30.12 in ESE 4.0 mph 6.0 mph 86 % 0.01 in
17:32 74.5 °F 70.0 °F 30.12 in SSE 3.0 mph 6.0 mph 86 % 0.01 in
17:37 74.7 °F 70.5 °F 30.12 in SE 4.0 mph 6.0 mph 87 % 0.01 in
17:42 74.7 °F 70.2 °F 30.12 in SE 2.0 mph 6.0 mph 86 % 0.01 in
17:46 74.7 °F 70.2 °F 30.12 in ESE 6.0 mph 7.0 mph 86 % 0.00 in
17:52 74.5 °F 69.6 °F 30.12 in SSE 3.0 mph 8.0 mph 85 % 0.00 in
17:57 74.5 °F 70.0 °F 30.12 in ESE 3.0 mph 8.0 mph 86 % 0.00 in
18:02 74.3 °F 69.8 °F 30.12 in ESE 3.0 mph 8.0 mph 86 % 0.00 in
18:07 74.3 °F 69.8 °F 30.12 in South 3.0 mph 8.0 mph 86 % 0.00 in
18:12 74.5 °F 70.3 °F 30.11 in SE 3.0 mph 8.0 mph 87 % 0.00 in
18:17 74.5 °F 70.0 °F 30.11 in SE 3.0 mph 6.0 mph 86 % 0.00 in
18:22 74.5 °F 70.3 °F 30.11 in ESE 3.0 mph 7.0 mph 87 % 0.00 in
18:27 74.5 °F 70.3 °F 30.11 in East 4.0 mph 7.0 mph 87 % 0.00 in
18:32 74.5 °F 70.3 °F 30.11 in SE 4.0 mph 7.0 mph 87 % 0.00 in
18:37 74.5 °F 70.3 °F 30.11 in SE 3.0 mph 7.0 mph 87 % 0.00 in
18:42 74.7 °F 70.2 °F 30.11 in ESE 5.0 mph 7.0 mph 86 % 0.00 in
18:47 74.7 °F 70.2 °F 30.11 in SE 3.0 mph 9.0 mph 86 % 0.00 in
18:52 74.7 °F 70.2 °F 30.11 in SE 2.0 mph 9.0 mph 86 % 0.00 in
18:57 74.7 °F 70.2 °F 30.11 in ESE 2.0 mph 9.0 mph 86 % 0.00 in
19:02 74.7 °F 70.2 °F 30.11 in SE 5.0 mph 9.0 mph 86 % 0.00 in
19:07 74.7 °F 70.2 °F 30.11 in East 2.0 mph 9.0 mph 86 % 0.00 in
19:17 74.7 °F 69.8 °F 30.11 in SE 4.0 mph 8.0 mph 85 % 0.00 in
19:27 74.7 °F 69.8 °F 30.12 in ESE 3.0 mph 8.0 mph 85 % 0.00 in
19:32 74.7 °F 69.8 °F 30.12 in SSE 3.0 mph 7.0 mph 85 % 0.00 in
19:37 74.7 °F 69.8 °F 30.12 in SE 2.0 mph 7.0 mph 85 % 0.00 in
19:47 74.5 °F 70.0 °F 30.12 in Calm   6.0 mph 86 % 0.00 in
19:52 74.3 °F 69.8 °F 30.12 in North 2.0 mph 6.0 mph 86 % 0.00 in
19:57 74.1 °F 70.0 °F 30.12 in ESE 1.0 mph 6.0 mph 87 % 0.00 in
20:02 73.9 °F 69.8 °F 30.12 in East 5.0 mph 5.0 mph 87 % 0.00 in
20:07 73.8 °F 69.6 °F 30.12 in SE 3.0 mph 10.0 mph 87 % 0.00 in
20:12 73.8 °F 69.6 °F 30.12 in SE 2.0 mph 10.0 mph 87 % 0.00 in
20:17 73.6 °F 69.8 °F 30.12 in East 4.0 mph 10.0 mph 88 % 0.00 in
20:27 73.2 °F 69.4 °F 30.12 in ESE 3.0 mph 6.0 mph 88 % 0.00 in
20:32 73.0 °F 69.3 °F 30.12 in SE 3.0 mph 6.0 mph 88 % 0.00 in
20:37 73.0 °F 69.6 °F 30.13 in ESE 3.0 mph 6.0 mph 89 % 0.00 in
20:42 73.0 °F 69.6 °F 30.13 in SSE 1.0 mph 7.0 mph 89 % 0.00 in
20:47 72.9 °F 69.4 °F 30.13 in South 2.0 mph 7.0 mph 89 % 0.00 in
20:52 72.9 °F 69.4 °F 30.13 in SE 1.0 mph 7.0 mph 89 % 0.00 in
20:57 72.9 °F 69.8 °F 30.14 in SE 1.0 mph 5.0 mph 90 % 0.00 in
21:02 72.7 °F 69.6 °F 30.14 in SE 1.0 mph 5.0 mph 90 % 0.00 in
21:07 72.7 °F 69.6 °F 30.14 in ESE 1.0 mph 4.0 mph 90 % 0.00 in
21:12 72.7 °F 70.0 °F 30.14 in East 1.0 mph 4.0 mph 91 % 0.00 in
21:17 72.5 °F 69.8 °F 30.14 in ESE 3.0 mph 4.0 mph 91 % 0.00 in
21:22 72.3 °F 69.6 °F 30.15 in ESE 2.0 mph 5.0 mph 91 % 0.00 in
21:27 72.3 °F 69.6 °F 30.15 in NE 2.0 mph 5.0 mph 91 % 0.00 in
21:32 72.1 °F 69.4 °F 30.15 in SSE 1.0 mph 5.0 mph 91 % 0.00 in
21:37 72.0 °F 69.4 °F 30.15 in ESE 1.0 mph 3.0 mph 92 % 0.00 in
21:42 71.8 °F 69.3 °F 30.15 in Calm   3.0 mph 92 % 0.00 in
21:47 71.6 °F 69.1 °F 30.15 in Calm   4.0 mph 92 % 0.00 in
21:52 71.4 °F 68.9 °F 30.15 in Calm   4.0 mph 92 % 0.00 in
21:57 71.4 °F 68.9 °F 30.15 in Calm   4.0 mph 92 % 0.00 in
22:02 71.2 °F 69.1 °F 30.15 in ESE 1.0 mph 2.0 mph 93 % 0.00 in
22:07 71.2 °F 69.1 °F 30.15 in ESE 1.0 mph 2.0 mph 93 % 0.00 in
22:12 71.1 °F 68.9 °F 30.15 in Calm   2.0 mph 93 % 0.00 in
22:17 70.9 °F 68.7 °F 30.15 in Calm   2.0 mph 93 % 0.00 in
22:22 70.7 °F 68.5 °F 30.15 in Calm   2.0 mph 93 % 0.00 in
22:27 70.5 °F 68.4 °F 30.15 in Calm   2.0 mph 93 % 0.00 in
22:32 70.3 °F 68.5 °F 30.15 in Calm   2.0 mph 94 % 0.00 in
22:33 70.3 °F 68.2 °F 30.15 in Calm   2.0 mph 93 % 0.00 in
22:38 70.2 °F 68.4 °F 30.15 in Calm   1.0 mph 94 % 0.00 in
22:43 69.8 °F 68.0 °F 30.15 in Calm   1.0 mph 94 % 0.00 in
22:48 69.6 °F 67.8 °F 30.15 in Calm   1.0 mph 94 % 0.00 in
22:53 69.4 °F 67.6 °F 30.15 in Calm   1.0 mph 94 % 0.00 in
22:58 69.4 °F 67.6 °F 30.15 in Calm   1.0 mph 94 % 0.00 in
23:03 69.3 °F 67.5 °F 30.15 in Calm   1.0 mph 94 % 0.00 in
23:08 69.1 °F 67.6 °F 30.15 in Calm   1.0 mph 95 % 0.00 in
23:13 68.7 °F 67.3 °F 30.15 in Calm     95 % 0.00 in
23:19 68.5 °F 67.1 °F 30.15 in Calm     95 % 0.00 in
23:24 68.5 °F 67.1 °F 30.15 in Calm     95 % 0.00 in
23:29 68.4 °F 66.9 °F 30.15 in Calm     95 % 0.00 in
23:34 68.2 °F 66.9 °F 30.16 in Calm     96 % 0.00 in
23:39 68.2 °F 66.9 °F 30.16 in Calm     96 % 0.00 in
23:44 68.2 °F 66.9 °F 30.16 in Calm     96 % 0.00 in
23:49 68.0 °F 66.7 °F 30.16 in Calm   1.0 mph 96 % 0.00 in
23:54 67.8 °F 66.6 °F 30.16 in Calm   1.0 mph 96 % 0.00 in
23:59 67.8 °F 66.6 °F 30.16 in Calm   1.0 mph 96 % 0.00 in
Spring, Texas: Villages of Bridgestone
Compliments of Weather Underground - 2.75 mb

Script developed by  Jim McMurry - jmcmurry@mwt.net Adapted for the template by  Wim van der Kuil - Leuven-Template.eu

You find our weather info also at:

UK Metoffice

WeatherCloud

Weather Underground

Mid-South Weather Network

AWEKAS

Citizen Weather Observer Program (CWOP)

HAMweather, WeatherForYou, PWS Weather

Equipment we use:

Weather-station
Davis Vantage Vue

Weather-program
Meteohub

Weather-server
Debian 7.9 x86 (Guest)

Provider
DreamHost

Davis Vantage Vue

Meteohub

Debian 7.9 x86 (Guest)

DreamHost